<?xml version="1.0" encoding="utf-8"?>
<gpx xmlns:xsi="http://www.w3.org/2001/XMLSchema-instance" xmlns:xsd="http://www.w3.org/2001/XMLSchema" version="1.1" creator="Shapelink.com" xmlns="http://www.topografix.com/GPX/1/1" xmlns:gpxtpx="http://www.garmin.com/xmlschemas/TrackPointExtension/v1">
  <metadata>
    <name>Cycling 12.54 km, 2020-06-04</name>
    <desc></desc>
    <author><name>Marian Moron</name></author> 
    <time>2020-06-04T17:40:22Z</time>
  </metadata>
  <trk>
    <name>Cycling 12.54 km, 2020-06-04</name>
    <trkseg>
      <trkpt lat="51.228800012418" lon="4.448957203393">
        <ele>0</ele>
        <time>2020-06-04T17:40:22Z</time>
      </trkpt>
      <trkpt lat="51.228846448144" lon="4.448869025805">
        <ele>0</ele>
        <time>2020-06-04T17:40:28Z</time>
      </trkpt>
      <trkpt lat="51.228818452598" lon="4.448898278636">
        <ele>0</ele>
        <time>2020-06-04T17:40:33Z</time>
      </trkpt>
      <trkpt lat="51.228831863638" lon="4.448913366056">
        <ele>0</ele>
        <time>2020-06-04T17:40:36Z</time>
      </trkpt>
      <trkpt lat="51.228810908888" lon="4.448960053239">
        <ele>0</ele>
        <time>2020-06-04T17:40:38Z</time>
      </trkpt>
      <trkpt lat="51.228784841179" lon="4.448983774016">
        <ele>0</ele>
        <time>2020-06-04T17:40:40Z</time>
      </trkpt>
      <trkpt lat="51.228801102065" lon="4.448937003014">
        <ele>0</ele>
        <time>2020-06-04T17:40:44Z</time>
      </trkpt>
      <trkpt lat="51.22882415229" lon="4.44893230915">
        <ele>0</ele>
        <time>2020-06-04T17:40:46Z</time>
      </trkpt>
      <trkpt lat="51.228825661032" lon="4.449009338811">
        <ele>0</ele>
        <time>2020-06-04T17:40:49Z</time>
      </trkpt>
      <trkpt lat="51.22874368605" lon="4.449111765629">
        <ele>0</ele>
        <time>2020-06-04T17:40:53Z</time>
      </trkpt>
      <trkpt lat="51.228962872735" lon="4.448585717585">
        <ele>0</ele>
        <time>2020-06-04T17:41:16Z</time>
      </trkpt>
      <trkpt lat="51.228682749637" lon="4.447831011309">
        <ele>0</ele>
        <time>2020-06-04T17:41:40Z</time>
      </trkpt>
      <trkpt lat="51.22829357802" lon="4.447274788425">
        <ele>0</ele>
        <time>2020-06-04T17:41:55Z</time>
      </trkpt>
      <trkpt lat="51.227886385318" lon="4.44783763301">
        <ele>0</ele>
        <time>2020-06-04T17:42:11Z</time>
      </trkpt>
      <trkpt lat="51.227441557885" lon="4.448349180367">
        <ele>0</ele>
        <time>2020-06-04T17:42:25Z</time>
      </trkpt>
      <trkpt lat="51.227056744856" lon="4.448979834523">
        <ele>0</ele>
        <time>2020-06-04T17:42:39Z</time>
      </trkpt>
      <trkpt lat="51.226958592807" lon="4.449361378611">
        <ele>0</ele>
        <time>2020-06-04T17:42:47Z</time>
      </trkpt>
      <trkpt lat="51.226812663928" lon="4.449368419407">
        <ele>0</ele>
        <time>2020-06-04T17:42:57Z</time>
      </trkpt>
      <trkpt lat="51.226344534813" lon="4.449755076454">
        <ele>0</ele>
        <time>2020-06-04T17:43:15Z</time>
      </trkpt>
      <trkpt lat="51.225949747323" lon="4.4503781869">
        <ele>0</ele>
        <time>2020-06-04T17:43:28Z</time>
      </trkpt>
      <trkpt lat="51.22554263844" lon="4.451009846884">
        <ele>0</ele>
        <time>2020-06-04T17:43:42Z</time>
      </trkpt>
      <trkpt lat="51.225517828016" lon="4.451057707533">
        <ele>0</ele>
        <time>2020-06-04T17:43:43Z</time>
      </trkpt>
      <trkpt lat="51.225207110983" lon="4.451805205375">
        <ele>0.6</ele>
        <time>2020-06-04T17:43:57Z</time>
      </trkpt>
      <trkpt lat="51.225039472983" lon="4.452234442474">
        <ele>0</ele>
        <time>2020-06-04T17:44:05Z</time>
      </trkpt>
      <trkpt lat="51.224511329464" lon="4.452068564673">
        <ele>0</ele>
        <time>2020-06-04T17:44:24Z</time>
      </trkpt>
      <trkpt lat="51.223983437402" lon="4.451816604759">
        <ele>0</ele>
        <time>2020-06-04T17:44:38Z</time>
      </trkpt>
      <trkpt lat="51.223822588741" lon="4.451727840438">
        <ele>0</ele>
        <time>2020-06-04T17:44:42Z</time>
      </trkpt>
      <trkpt lat="51.22375142641" lon="4.451650391682">
        <ele>0</ele>
        <time>2020-06-04T17:44:44Z</time>
      </trkpt>
      <trkpt lat="51.22328539277" lon="4.451188297535">
        <ele>0</ele>
        <time>2020-06-04T17:44:58Z</time>
      </trkpt>
      <trkpt lat="51.222723637832" lon="4.451052426936">
        <ele>0</ele>
        <time>2020-06-04T17:45:13Z</time>
      </trkpt>
      <trkpt lat="51.22260645887" lon="4.451090564581">
        <ele>0</ele>
        <time>2020-06-04T17:45:16Z</time>
      </trkpt>
      <trkpt lat="51.222053085832" lon="4.451235822908">
        <ele>0</ele>
        <time>2020-06-04T17:45:31Z</time>
      </trkpt>
      <trkpt lat="51.221553189316" lon="4.451572188555">
        <ele>0</ele>
        <time>2020-06-04T17:45:46Z</time>
      </trkpt>
      <trkpt lat="51.221016244802" lon="4.451745107152">
        <ele>0</ele>
        <time>2020-06-04T17:46:04Z</time>
      </trkpt>
      <trkpt lat="51.220566639686" lon="4.451852982205">
        <ele>0</ele>
        <time>2020-06-04T17:46:50Z</time>
      </trkpt>
      <trkpt lat="51.220600251105" lon="4.451843259201">
        <ele>0</ele>
        <time>2020-06-04T17:46:55Z</time>
      </trkpt>
      <trkpt lat="51.220561107632" lon="4.451845270857">
        <ele>0</ele>
        <time>2020-06-04T17:47:09Z</time>
      </trkpt>
      <trkpt lat="51.220436049684" lon="4.451874272231">
        <ele>0</ele>
        <time>2020-06-04T17:47:16Z</time>
      </trkpt>
      <trkpt lat="51.219892148193" lon="4.451973430108">
        <ele>0</ele>
        <time>2020-06-04T17:47:38Z</time>
      </trkpt>
      <trkpt lat="51.219332656368" lon="4.452055572728">
        <ele>0</ele>
        <time>2020-06-04T17:47:54Z</time>
      </trkpt>
      <trkpt lat="51.219155882097" lon="4.452084574102">
        <ele>0</ele>
        <time>2020-06-04T17:47:58Z</time>
      </trkpt>
      <trkpt lat="51.219002158051" lon="4.452503166188">
        <ele>0</ele>
        <time>2020-06-04T17:48:07Z</time>
      </trkpt>
      <trkpt lat="51.219298542035" lon="4.453251669858">
        <ele>0</ele>
        <time>2020-06-04T17:48:18Z</time>
      </trkpt>
      <trkpt lat="51.219446901665" lon="4.453648217547">
        <ele>0</ele>
        <time>2020-06-04T17:48:24Z</time>
      </trkpt>
      <trkpt lat="51.219527116448" lon="4.453841504161">
        <ele>0</ele>
        <time>2020-06-04T17:48:29Z</time>
      </trkpt>
      <trkpt lat="51.219470035709" lon="4.45382230961">
        <ele>0</ele>
        <time>2020-06-04T17:49:22Z</time>
      </trkpt>
      <trkpt lat="51.218952118108" lon="4.454223634982">
        <ele>0</ele>
        <time>2020-06-04T17:49:38Z</time>
      </trkpt>
      <trkpt lat="51.218845751797" lon="4.454357242468">
        <ele>0</ele>
        <time>2020-06-04T17:49:41Z</time>
      </trkpt>
      <trkpt lat="51.218373180275" lon="4.454823024651">
        <ele>0</ele>
        <time>2020-06-04T17:49:55Z</time>
      </trkpt>
      <trkpt lat="51.217939333131" lon="4.455338846777">
        <ele>0</ele>
        <time>2020-06-04T17:50:12Z</time>
      </trkpt>
      <trkpt lat="51.21765527054" lon="4.456045943861">
        <ele>0</ele>
        <time>2020-06-04T17:50:27Z</time>
      </trkpt>
      <trkpt lat="51.21747589788" lon="4.456716076766">
        <ele>0</ele>
        <time>2020-06-04T17:50:44Z</time>
      </trkpt>
      <trkpt lat="51.217114470352" lon="4.456780785034">
        <ele>0</ele>
        <time>2020-06-04T17:50:58Z</time>
      </trkpt>
      <trkpt lat="51.217199127542" lon="4.45763272135">
        <ele>0</ele>
        <time>2020-06-04T17:51:17Z</time>
      </trkpt>
      <trkpt lat="51.217285712569" lon="4.458508378443">
        <ele>0</ele>
        <time>2020-06-04T17:51:34Z</time>
      </trkpt>
      <trkpt lat="51.216968541473" lon="4.459201058659">
        <ele>0</ele>
        <time>2020-06-04T17:51:50Z</time>
      </trkpt>
      <trkpt lat="51.216632259645" lon="4.4598748796">
        <ele>1.2</ele>
        <time>2020-06-04T17:52:06Z</time>
      </trkpt>
      <trkpt lat="51.216279633112" lon="4.46054040246">
        <ele>0</ele>
        <time>2020-06-04T17:52:23Z</time>
      </trkpt>
      <trkpt lat="51.215944776207" lon="4.461270549769">
        <ele>0</ele>
        <time>2020-06-04T17:52:41Z</time>
      </trkpt>
      <trkpt lat="51.215626515464" lon="4.462010336263">
        <ele>0</ele>
        <time>2020-06-04T17:52:57Z</time>
      </trkpt>
      <trkpt lat="51.215427780615" lon="4.462306971704">
        <ele>0</ele>
        <time>2020-06-04T17:53:05Z</time>
      </trkpt>
      <trkpt lat="51.215091834063" lon="4.461617141334">
        <ele>0</ele>
        <time>2020-06-04T17:53:22Z</time>
      </trkpt>
      <trkpt lat="51.214767119257" lon="4.460912475001">
        <ele>0</ele>
        <time>2020-06-04T17:53:38Z</time>
      </trkpt>
      <trkpt lat="51.214465789952" lon="4.460149303006">
        <ele>0</ele>
        <time>2020-06-04T17:53:55Z</time>
      </trkpt>
      <trkpt lat="51.213979639752" lon="4.460418194358">
        <ele>0</ele>
        <time>2020-06-04T17:54:14Z</time>
      </trkpt>
      <trkpt lat="51.213507738782" lon="4.46094189547">
        <ele>0</ele>
        <time>2020-06-04T17:54:31Z</time>
      </trkpt>
      <trkpt lat="51.213055451458" lon="4.461470877179">
        <ele>0</ele>
        <time>2020-06-04T17:54:47Z</time>
      </trkpt>
      <trkpt lat="51.212614982613" lon="4.462014191937">
        <ele>0.2</ele>
        <time>2020-06-04T17:55:08Z</time>
      </trkpt>
      <trkpt lat="51.212248190669" lon="4.462671751992">
        <ele>0.8</ele>
        <time>2020-06-04T17:55:26Z</time>
      </trkpt>
      <trkpt lat="51.21191785999" lon="4.463390583736">
        <ele>3</ele>
        <time>2020-06-04T17:55:45Z</time>
      </trkpt>
      <trkpt lat="51.211608484061" lon="4.464098099915">
        <ele>0</ele>
        <time>2020-06-04T17:56:03Z</time>
      </trkpt>
      <trkpt lat="51.211396673448" lon="4.464933272431">
        <ele>0</ele>
        <time>2020-06-04T17:56:22Z</time>
      </trkpt>
      <trkpt lat="51.211427267383" lon="4.4657841191">
        <ele>0</ele>
        <time>2020-06-04T17:56:38Z</time>
      </trkpt>
      <trkpt lat="51.211567245113" lon="4.466601186712">
        <ele>0</ele>
        <time>2020-06-04T17:56:53Z</time>
      </trkpt>
      <trkpt lat="51.211573447719" lon="4.467111979698">
        <ele>0</ele>
        <time>2020-06-04T17:57:06Z</time>
      </trkpt>
      <trkpt lat="51.211543943431" lon="4.467116757381">
        <ele>0</ele>
        <time>2020-06-04T17:57:50Z</time>
      </trkpt>
      <trkpt lat="51.211551068046" lon="4.467160510899">
        <ele>0</ele>
        <time>2020-06-04T17:57:52Z</time>
      </trkpt>
      <trkpt lat="51.211500357551" lon="4.468021583486">
        <ele>0</ele>
        <time>2020-06-04T17:58:08Z</time>
      </trkpt>
      <trkpt lat="51.211432045066" lon="4.468896821484">
        <ele>0</ele>
        <time>2020-06-04T17:58:27Z</time>
      </trkpt>
      <trkpt lat="51.211519384464" lon="4.469754960406">
        <ele>0</ele>
        <time>2020-06-04T17:58:44Z</time>
      </trkpt>
      <trkpt lat="51.211585350017" lon="4.470083782343">
        <ele>0</ele>
        <time>2020-06-04T17:58:50Z</time>
      </trkpt>
      <trkpt lat="51.211646370249" lon="4.470410844081">
        <ele>1.4</ele>
        <time>2020-06-04T17:58:55Z</time>
      </trkpt>
      <trkpt lat="51.211908053167" lon="4.471154821525">
        <ele>0</ele>
        <time>2020-06-04T17:59:08Z</time>
      </trkpt>
      <trkpt lat="51.212319269181" lon="4.47173694448">
        <ele>0</ele>
        <time>2020-06-04T17:59:22Z</time>
      </trkpt>
      <trkpt lat="51.212612300405" lon="4.472500284113">
        <ele>0</ele>
        <time>2020-06-04T17:59:38Z</time>
      </trkpt>
      <trkpt lat="51.212730820471" lon="4.4727746237">
        <ele>0</ele>
        <time>2020-06-04T17:59:44Z</time>
      </trkpt>
      <trkpt lat="51.212857387161" lon="4.47284670804">
        <ele>0</ele>
        <time>2020-06-04T17:59:48Z</time>
      </trkpt>
      <trkpt lat="51.213062156978" lon="4.473657740684">
        <ele>0</ele>
        <time>2020-06-04T18:00:05Z</time>
      </trkpt>
      <trkpt lat="51.213298023644" lon="4.474475814124">
        <ele>0</ele>
        <time>2020-06-04T18:00:20Z</time>
      </trkpt>
      <trkpt lat="51.213439426297" lon="4.475343173136">
        <ele>0</ele>
        <time>2020-06-04T18:00:34Z</time>
      </trkpt>
      <trkpt lat="51.21359591637" lon="4.476205419189">
        <ele>2.4</ele>
        <time>2020-06-04T18:00:49Z</time>
      </trkpt>
      <trkpt lat="51.213745198009" lon="4.477046710492">
        <ele>0</ele>
        <time>2020-06-04T18:01:03Z</time>
      </trkpt>
      <trkpt lat="51.213936556786" lon="4.47749698616">
        <ele>0</ele>
        <time>2020-06-04T18:01:11Z</time>
      </trkpt>
      <trkpt lat="51.214137722386" lon="4.477766296607">
        <ele>0</ele>
        <time>2020-06-04T18:01:18Z</time>
      </trkpt>
      <trkpt lat="51.214545082726" lon="4.478331907219">
        <ele>0</ele>
        <time>2020-06-04T18:01:34Z</time>
      </trkpt>
      <trkpt lat="51.215042967586" lon="4.478769442399">
        <ele>0</ele>
        <time>2020-06-04T18:01:50Z</time>
      </trkpt>
      <trkpt lat="51.215600615393" lon="4.478924759006">
        <ele>0</ele>
        <time>2020-06-04T18:02:05Z</time>
      </trkpt>
      <trkpt lat="51.215839918638" lon="4.479048727307">
        <ele>0</ele>
        <time>2020-06-04T18:02:11Z</time>
      </trkpt>
      <trkpt lat="51.216117610985" lon="4.479379728538">
        <ele>0</ele>
        <time>2020-06-04T18:02:20Z</time>
      </trkpt>
      <trkpt lat="51.216143511056" lon="4.480265192454">
        <ele>0</ele>
        <time>2020-06-04T18:02:35Z</time>
      </trkpt>
      <trkpt lat="51.216191455524" lon="4.480328475799">
        <ele>0</ele>
        <time>2020-06-04T18:02:37Z</time>
      </trkpt>
      <trkpt lat="51.216344173742" lon="4.480321099727">
        <ele>0</ele>
        <time>2020-06-04T18:02:42Z</time>
      </trkpt>
      <trkpt lat="51.216406870354" lon="4.480362087218">
        <ele>0</ele>
        <time>2020-06-04T18:02:45Z</time>
      </trkpt>
      <trkpt lat="51.216958315555" lon="4.480361668123">
        <ele>0</ele>
        <time>2020-06-04T18:02:59Z</time>
      </trkpt>
      <trkpt lat="51.217027801506" lon="4.480408103849">
        <ele>0</ele>
        <time>2020-06-04T18:03:02Z</time>
      </trkpt>
      <trkpt lat="51.217005924747" lon="4.48126884116">
        <ele>0</ele>
        <time>2020-06-04T18:03:17Z</time>
      </trkpt>
      <trkpt lat="51.216810961753" lon="4.481430528011">
        <ele>0</ele>
        <time>2020-06-04T18:03:24Z</time>
      </trkpt>
      <trkpt lat="51.216787827709" lon="4.481370429788">
        <ele>0</ele>
        <time>2020-06-04T18:03:26Z</time>
      </trkpt>
      <trkpt lat="51.216802412215" lon="4.48137612948">
        <ele>0</ele>
        <time>2020-06-04T18:03:29Z</time>
      </trkpt>
      <trkpt lat="51.216281728587" lon="4.481449806381">
        <ele>0</ele>
        <time>2020-06-04T18:03:46Z</time>
      </trkpt>
      <trkpt lat="51.216269239556" lon="4.481551814104">
        <ele>0</ele>
        <time>2020-06-04T18:03:48Z</time>
      </trkpt>
      <trkpt lat="51.216296061636" lon="4.481655079112">
        <ele>0</ele>
        <time>2020-06-04T18:03:50Z</time>
      </trkpt>
      <trkpt lat="51.216353896746" lon="4.481686846513">
        <ele>0</ele>
        <time>2020-06-04T18:03:52Z</time>
      </trkpt>
      <trkpt lat="51.216836694186" lon="4.481452740046">
        <ele>0</ele>
        <time>2020-06-04T18:04:08Z</time>
      </trkpt>
      <trkpt lat="51.217046493143" lon="4.480692250259">
        <ele>0</ele>
        <time>2020-06-04T18:04:31Z</time>
      </trkpt>
      <trkpt lat="51.217095191982" lon="4.479816760804">
        <ele>0</ele>
        <time>2020-06-04T18:04:45Z</time>
      </trkpt>
      <trkpt lat="51.217134670731" lon="4.478938421503">
        <ele>0</ele>
        <time>2020-06-04T18:05:00Z</time>
      </trkpt>
      <trkpt lat="51.217224357061" lon="4.477569154319">
        <ele>0</ele>
        <time>2020-06-04T18:05:27Z</time>
      </trkpt>
      <trkpt lat="51.217195690963" lon="4.476852837145">
        <ele>0</ele>
        <time>2020-06-04T18:05:43Z</time>
      </trkpt>
      <trkpt lat="51.21721102984" lon="4.476681678747">
        <ele>0</ele>
        <time>2020-06-04T18:05:47Z</time>
      </trkpt>
      <trkpt lat="51.217193176393" lon="4.476550837288">
        <ele>0</ele>
        <time>2020-06-04T18:05:50Z</time>
      </trkpt>
      <trkpt lat="51.217220501387" lon="4.47641572106">
        <ele>0</ele>
        <time>2020-06-04T18:05:54Z</time>
      </trkpt>
      <trkpt lat="51.217204156682" lon="4.476301391944">
        <ele>0</ele>
        <time>2020-06-04T18:05:57Z</time>
      </trkpt>
      <trkpt lat="51.217226536355" lon="4.476151020658">
        <ele>0</ele>
        <time>2020-06-04T18:06:01Z</time>
      </trkpt>
      <trkpt lat="51.217219244102" lon="4.47602177176">
        <ele>0</ele>
        <time>2020-06-04T18:06:04Z</time>
      </trkpt>
      <trkpt lat="51.217258303756" lon="4.475142007536">
        <ele>0</ele>
        <time>2020-06-04T18:06:23Z</time>
      </trkpt>
      <trkpt lat="51.217297111953" lon="4.47474772296">
        <ele>0</ele>
        <time>2020-06-04T18:06:31Z</time>
      </trkpt>
      <trkpt lat="51.217299961799" lon="4.474553011423">
        <ele>0</ele>
        <time>2020-06-04T18:06:35Z</time>
      </trkpt>
      <trkpt lat="51.217319910721" lon="4.474467264586">
        <ele>0</ele>
        <time>2020-06-04T18:06:37Z</time>
      </trkpt>
      <trkpt lat="51.217335836331" lon="4.47386259432">
        <ele>0</ele>
        <time>2020-06-04T18:06:48Z</time>
      </trkpt>
      <trkpt lat="51.217360060022" lon="4.473732758689">
        <ele>0</ele>
        <time>2020-06-04T18:06:51Z</time>
      </trkpt>
      <trkpt lat="51.217387804111" lon="4.472867830428">
        <ele>0</ele>
        <time>2020-06-04T18:07:05Z</time>
      </trkpt>
      <trkpt lat="51.217391911242" lon="4.47254663602">
        <ele>0</ele>
        <time>2020-06-04T18:07:13Z</time>
      </trkpt>
      <trkpt lat="51.21743901752" lon="4.472542780346">
        <ele>0</ele>
        <time>2020-06-04T18:07:18Z</time>
      </trkpt>
      <trkpt lat="51.217504061064" lon="4.471943306858">
        <ele>0</ele>
        <time>2020-06-04T18:07:30Z</time>
      </trkpt>
      <trkpt lat="51.217498780467" lon="4.471105200677">
        <ele>0</ele>
        <time>2020-06-04T18:07:44Z</time>
      </trkpt>
      <trkpt lat="51.217529290583" lon="4.470229124489">
        <ele>0</ele>
        <time>2020-06-04T18:07:59Z</time>
      </trkpt>
      <trkpt lat="51.21751696919" lon="4.469357574527">
        <ele>0</ele>
        <time>2020-06-04T18:08:18Z</time>
      </trkpt>
      <trkpt lat="51.217515544267" lon="4.468470182774">
        <ele>0</ele>
        <time>2020-06-04T18:08:34Z</time>
      </trkpt>
      <trkpt lat="51.217610343556" lon="4.467625119616">
        <ele>0</ele>
        <time>2020-06-04T18:08:51Z</time>
      </trkpt>
      <trkpt lat="51.217661556965" lon="4.466769243807">
        <ele>0</ele>
        <time>2020-06-04T18:09:09Z</time>
      </trkpt>
      <trkpt lat="51.217664658268" lon="4.465887048832">
        <ele>0</ele>
        <time>2020-06-04T18:09:30Z</time>
      </trkpt>
      <trkpt lat="51.217251095322" lon="4.465369298869">
        <ele>0</ele>
        <time>2020-06-04T18:09:42Z</time>
      </trkpt>
      <trkpt lat="51.217161911906" lon="4.464986329858">
        <ele>0</ele>
        <time>2020-06-04T18:09:48Z</time>
      </trkpt>
      <trkpt lat="51.216857900393" lon="4.464223157863">
        <ele>0</ele>
        <time>2020-06-04T18:10:01Z</time>
      </trkpt>
      <trkpt lat="51.216389100726" lon="4.463910512993">
        <ele>0</ele>
        <time>2020-06-04T18:10:16Z</time>
      </trkpt>
      <trkpt lat="51.215927677131" lon="4.463688141186">
        <ele>0</ele>
        <time>2020-06-04T18:10:34Z</time>
      </trkpt>
      <trkpt lat="51.216069247422" lon="4.462879204017">
        <ele>0</ele>
        <time>2020-06-04T18:10:51Z</time>
      </trkpt>
      <trkpt lat="51.216577609657" lon="4.462524146733">
        <ele>0</ele>
        <time>2020-06-04T18:11:12Z</time>
      </trkpt>
      <trkpt lat="51.217098209466" lon="4.462218710297">
        <ele>0</ele>
        <time>2020-06-04T18:11:28Z</time>
      </trkpt>
      <trkpt lat="51.217615372696" lon="4.461970941333">
        <ele>0</ele>
        <time>2020-06-04T18:11:43Z</time>
      </trkpt>
      <trkpt lat="51.2177424423" lon="4.461912268033">
        <ele>0</ele>
        <time>2020-06-04T18:11:48Z</time>
      </trkpt>
      <trkpt lat="51.217807988758" lon="4.461944622167">
        <ele>0</ele>
        <time>2020-06-04T18:11:52Z</time>
      </trkpt>
      <trkpt lat="51.217836403399" lon="4.46172141217">
        <ele>0</ele>
        <time>2020-06-04T18:12:01Z</time>
      </trkpt>
      <trkpt lat="51.217944362271" lon="4.461338526978">
        <ele>0</ele>
        <time>2020-06-04T18:12:13Z</time>
      </trkpt>
      <trkpt lat="51.218453814153" lon="4.46097793764">
        <ele>0</ele>
        <time>2020-06-04T18:12:32Z</time>
      </trkpt>
      <trkpt lat="51.218960164732" lon="4.460631178437">
        <ele>0</ele>
        <time>2020-06-04T18:12:47Z</time>
      </trkpt>
      <trkpt lat="51.219452936633" lon="4.460241420087">
        <ele>0</ele>
        <time>2020-06-04T18:13:02Z</time>
      </trkpt>
      <trkpt lat="51.219597105313" lon="4.460094150104">
        <ele>0</ele>
        <time>2020-06-04T18:13:06Z</time>
      </trkpt>
      <trkpt lat="51.220081160038" lon="4.459689891067">
        <ele>1.4</ele>
        <time>2020-06-04T18:13:22Z</time>
      </trkpt>
      <trkpt lat="51.220206301805" lon="4.459615711252">
        <ele>4</ele>
        <time>2020-06-04T18:13:28Z</time>
      </trkpt>
      <trkpt lat="51.22025533592" lon="4.459613196682">
        <ele>9.8</ele>
        <time>2020-06-04T18:13:37Z</time>
      </trkpt>
      <trkpt lat="51.22026958515" lon="4.459584111489">
        <ele>10.2</ele>
        <time>2020-06-04T18:13:39Z</time>
      </trkpt>
      <trkpt lat="51.220286097493" lon="4.459480008291">
        <ele>10.4</ele>
        <time>2020-06-04T18:13:44Z</time>
      </trkpt>
      <trkpt lat="51.220302777474" lon="4.458616169677">
        <ele>10.2</ele>
        <time>2020-06-04T18:14:03Z</time>
      </trkpt>
      <trkpt lat="51.220302358379" lon="4.457754426538">
        <ele>9.4</ele>
        <time>2020-06-04T18:14:18Z</time>
      </trkpt>
      <trkpt lat="51.220281655086" lon="4.456845325664">
        <ele>17.4</ele>
        <time>2020-06-04T18:14:33Z</time>
      </trkpt>
      <trkpt lat="51.220184508865" lon="4.456105958265">
        <ele>13</ele>
        <time>2020-06-04T18:14:44Z</time>
      </trkpt>
      <trkpt lat="51.219865912846" lon="4.455376481508">
        <ele>3.6</ele>
        <time>2020-06-04T18:14:59Z</time>
      </trkpt>
      <trkpt lat="51.219587885223" lon="4.454585565424">
        <ele>1.2</ele>
        <time>2020-06-04T18:15:20Z</time>
      </trkpt>
      <trkpt lat="51.219378086266" lon="4.453831697338">
        <ele>0</ele>
        <time>2020-06-04T18:15:38Z</time>
      </trkpt>
      <trkpt lat="51.219367608891" lon="4.453832451709">
        <ele>0</ele>
        <time>2020-06-04T18:16:20Z</time>
      </trkpt>
      <trkpt lat="51.21938278013" lon="4.453793727331">
        <ele>0</ele>
        <time>2020-06-04T18:16:24Z</time>
      </trkpt>
      <trkpt lat="51.219396945541" lon="4.453757601342">
        <ele>0</ele>
        <time>2020-06-04T18:16:26Z</time>
      </trkpt>
      <trkpt lat="51.219205586764" lon="4.452959895919">
        <ele>0</ele>
        <time>2020-06-04T18:16:42Z</time>
      </trkpt>
      <trkpt lat="51.218996123083" lon="4.452307616461">
        <ele>0</ele>
        <time>2020-06-04T18:16:58Z</time>
      </trkpt>
      <trkpt lat="51.219069548527" lon="4.452132350932">
        <ele>0</ele>
        <time>2020-06-04T18:17:02Z</time>
      </trkpt>
      <trkpt lat="51.219142722514" lon="4.452062864981">
        <ele>0</ele>
        <time>2020-06-04T18:17:04Z</time>
      </trkpt>
      <trkpt lat="51.219682684512" lon="4.451993881944">
        <ele>0</ele>
        <time>2020-06-04T18:17:22Z</time>
      </trkpt>
      <trkpt lat="51.220248378943" lon="4.451929928047">
        <ele>0</ele>
        <time>2020-06-04T18:17:40Z</time>
      </trkpt>
      <trkpt lat="51.220793286262" lon="4.451795147095">
        <ele>0</ele>
        <time>2020-06-04T18:17:54Z</time>
      </trkpt>
      <trkpt lat="51.221351269345" lon="4.451647625655">
        <ele>0</ele>
        <time>2020-06-04T18:18:08Z</time>
      </trkpt>
      <trkpt lat="51.221491079437" lon="4.451605380879">
        <ele>0</ele>
        <time>2020-06-04T18:18:11Z</time>
      </trkpt>
      <trkpt lat="51.222019139137" lon="4.451286701041">
        <ele>0</ele>
        <time>2020-06-04T18:18:22Z</time>
      </trkpt>
      <trkpt lat="51.222576954582" lon="4.451089307296">
        <ele>0</ele>
        <time>2020-06-04T18:18:36Z</time>
      </trkpt>
      <trkpt lat="51.222799996941" lon="4.451055863515">
        <ele>0</ele>
        <time>2020-06-04T18:18:41Z</time>
      </trkpt>
      <trkpt lat="51.223335432713" lon="4.451206737715">
        <ele>0</ele>
        <time>2020-06-04T18:18:54Z</time>
      </trkpt>
      <trkpt lat="51.223457640815" lon="4.451268009404">
        <ele>0</ele>
        <time>2020-06-04T18:18:57Z</time>
      </trkpt>
      <trkpt lat="51.223546656593" lon="4.451293909475">
        <ele>0</ele>
        <time>2020-06-04T18:18:59Z</time>
      </trkpt>
      <trkpt lat="51.22394085735" lon="4.451368005471">
        <ele>0</ele>
        <time>2020-06-04T18:19:08Z</time>
      </trkpt>
      <trkpt lat="51.224146716814" lon="4.451192572304">
        <ele>0</ele>
        <time>2020-06-04T18:19:15Z</time>
      </trkpt>
      <trkpt lat="51.224193571635" lon="4.451158457971">
        <ele>0</ele>
        <time>2020-06-04T18:19:17Z</time>
      </trkpt>
      <trkpt lat="51.224274373151" lon="4.451034908765">
        <ele>0</ele>
        <time>2020-06-04T18:19:22Z</time>
      </trkpt>
      <trkpt lat="51.224293986797" lon="4.450947150272">
        <ele>0</ele>
        <time>2020-06-04T18:19:25Z</time>
      </trkpt>
      <trkpt lat="51.224683912785" lon="4.450347341508">
        <ele>0</ele>
        <time>2020-06-04T18:19:53Z</time>
      </trkpt>
      <trkpt lat="51.224743172818" lon="4.450271652951">
        <ele>0</ele>
        <time>2020-06-04T18:19:56Z</time>
      </trkpt>
      <trkpt lat="51.224878959598" lon="4.450048191497">
        <ele>0</ele>
        <time>2020-06-04T18:20:04Z</time>
      </trkpt>
      <trkpt lat="51.224912654836" lon="4.450016256458">
        <ele>0</ele>
        <time>2020-06-04T18:20:06Z</time>
      </trkpt>
      <trkpt lat="51.224966634272" lon="4.449927324499">
        <ele>0</ele>
        <time>2020-06-04T18:20:10Z</time>
      </trkpt>
      <trkpt lat="51.225012818541" lon="4.449877116918">
        <ele>0</ele>
        <time>2020-06-04T18:20:13Z</time>
      </trkpt>
      <trkpt lat="51.225046262322" lon="4.449857335634">
        <ele>0</ele>
        <time>2020-06-04T18:20:15Z</time>
      </trkpt>
      <trkpt lat="51.225137876489" lon="4.449761614336">
        <ele>0</ele>
        <time>2020-06-04T18:20:20Z</time>
      </trkpt>
      <trkpt lat="51.225262850618" lon="4.449704868873">
        <ele>0</ele>
        <time>2020-06-04T18:20:25Z</time>
      </trkpt>
      <trkpt lat="51.225318506434" lon="4.44970009119">
        <ele>0</ele>
        <time>2020-06-04T18:20:27Z</time>
      </trkpt>
      <trkpt lat="51.225370977128" lon="4.449674023481">
        <ele>0</ele>
        <time>2020-06-04T18:20:29Z</time>
      </trkpt>
      <trkpt lat="51.225567113588" lon="4.449697828077">
        <ele>0</ele>
        <time>2020-06-04T18:20:36Z</time>
      </trkpt>
      <trkpt lat="51.225888894729" lon="4.449550138999">
        <ele>0</ele>
        <time>2020-06-04T18:20:47Z</time>
      </trkpt>
      <trkpt lat="51.225935917188" lon="4.449492722984">
        <ele>0</ele>
        <time>2020-06-04T18:20:49Z</time>
      </trkpt>
      <trkpt lat="51.225980592715" lon="4.449441425756">
        <ele>0</ele>
        <time>2020-06-04T18:20:51Z</time>
      </trkpt>
      <trkpt lat="51.22605561072" lon="4.449301448026">
        <ele>0</ele>
        <time>2020-06-04T18:20:55Z</time>
      </trkpt>
      <trkpt lat="51.226312767412" lon="4.448834827653">
        <ele>0</ele>
        <time>2020-06-04T18:21:08Z</time>
      </trkpt>
      <trkpt lat="51.226629687051" lon="4.449302956768">
        <ele>0</ele>
        <time>2020-06-04T18:21:20Z</time>
      </trkpt>
      <trkpt lat="51.226762121071" lon="4.449116375674">
        <ele>0</ele>
        <time>2020-06-04T18:21:28Z</time>
      </trkpt>
      <trkpt lat="51.226756169922" lon="4.449106568851">
        <ele>0</ele>
        <time>2020-06-04T18:21:32Z</time>
      </trkpt>
      <trkpt lat="51.22679573249" lon="4.449070945776">
        <ele>0</ele>
        <time>2020-06-04T18:21:37Z</time>
      </trkpt>
      <trkpt lat="51.227192699274" lon="4.448497372359">
        <ele>0</ele>
        <time>2020-06-04T18:21:55Z</time>
      </trkpt>
      <trkpt lat="51.227593018818" lon="4.447927570797">
        <ele>0</ele>
        <time>2020-06-04T18:22:13Z</time>
      </trkpt>
      <trkpt lat="51.227985710833" lon="4.447335808657">
        <ele>0</ele>
        <time>2020-06-04T18:22:31Z</time>
      </trkpt>
      <trkpt lat="51.228380163047" lon="4.446703897216">
        <ele>0</ele>
        <time>2020-06-04T18:22:48Z</time>
      </trkpt>
      <trkpt lat="51.228787439568" lon="4.446136777862">
        <ele>0</ele>
        <time>2020-06-04T18:23:06Z</time>
      </trkpt>
      <trkpt lat="51.229175521538" lon="4.445537304374">
        <ele>0</ele>
        <time>2020-06-04T18:23:22Z</time>
      </trkpt>
      <trkpt lat="51.229582127507" lon="4.444932382651">
        <ele>0</ele>
        <time>2020-06-04T18:23:41Z</time>
      </trkpt>
      <trkpt lat="51.229727888748" lon="4.444759547873">
        <ele>0</ele>
        <time>2020-06-04T18:23:48Z</time>
      </trkpt>
      <trkpt lat="51.229741802702" lon="4.444774216198">
        <ele>0</ele>
        <time>2020-06-04T18:23:50Z</time>
      </trkpt>
      <trkpt lat="51.229738366123" lon="4.444801122097">
        <ele>0</ele>
        <time>2020-06-04T18:24:34Z</time>
      </trkpt>
      <trkpt lat="51.229750268421" lon="4.444837667181">
        <ele>0</ele>
        <time>2020-06-04T18:24:38Z</time>
      </trkpt>
      <trkpt lat="51.22977968889" lon="4.444946464243">
        <ele>0</ele>
        <time>2020-06-04T18:24:43Z</time>
      </trkpt>
      <trkpt lat="51.230021674343" lon="4.445736542137">
        <ele>0</ele>
        <time>2020-06-04T18:24:59Z</time>
      </trkpt>
      <trkpt lat="51.230247734186" lon="4.446576827612">
        <ele>0</ele>
        <time>2020-06-04T18:25:12Z</time>
      </trkpt>
      <trkpt lat="51.230323003648" lon="4.446859213823">
        <ele>0</ele>
        <time>2020-06-04T18:25:16Z</time>
      </trkpt>
      <trkpt lat="51.230361141293" lon="4.447059205957">
        <ele>0</ele>
        <time>2020-06-04T18:25:19Z</time>
      </trkpt>
      <trkpt lat="51.230405230087" lon="4.447166578096">
        <ele>0</ele>
        <time>2020-06-04T18:25:21Z</time>
      </trkpt>
      <trkpt lat="51.230441356076" lon="4.447289205293">
        <ele>0</ele>
        <time>2020-06-04T18:25:23Z</time>
      </trkpt>
      <trkpt lat="51.23051813428" lon="4.447504368666">
        <ele>0</ele>
        <time>2020-06-04T18:25:27Z</time>
      </trkpt>
      <trkpt lat="51.230715695663" lon="4.448306432677">
        <ele>0</ele>
        <time>2020-06-04T18:25:44Z</time>
      </trkpt>
      <trkpt lat="51.230912586494" lon="4.449116543312">
        <ele>0</ele>
        <time>2020-06-04T18:26:02Z</time>
      </trkpt>
      <trkpt lat="51.230924907887" lon="4.449195249353">
        <ele>0</ele>
        <time>2020-06-04T18:26:05Z</time>
      </trkpt>
      <trkpt lat="51.230932116321" lon="4.449145796143">
        <ele>0</ele>
        <time>2020-06-04T18:26:07Z</time>
      </trkpt>
      <trkpt lat="51.230907557354" lon="4.449049571931">
        <ele>0</ele>
        <time>2020-06-04T18:26:10Z</time>
      </trkpt>
      <trkpt lat="51.230884171853" lon="4.449042363497">
        <ele>0</ele>
        <time>2020-06-04T18:26:12Z</time>
      </trkpt>
      <trkpt lat="51.231077039372" lon="4.449888935397">
        <ele>0</ele>
        <time>2020-06-04T18:26:30Z</time>
      </trkpt>
      <trkpt lat="51.231153566119" lon="4.450429484128">
        <ele>0</ele>
        <time>2020-06-04T18:26:40Z</time>
      </trkpt>
      <trkpt lat="51.230631206111" lon="4.450714552547">
        <ele>1.2</ele>
        <time>2020-06-04T18:26:57Z</time>
      </trkpt>
      <trkpt lat="51.23043180071" lon="4.450728298863">
        <ele>3</ele>
        <time>2020-06-04T18:27:06Z</time>
      </trkpt>
      <trkpt lat="51.230422664439" lon="4.450718743497">
        <ele>2.8</ele>
        <time>2020-06-04T18:27:08Z</time>
      </trkpt>
      <trkpt lat="51.230368433546" lon="4.450702147335">
        <ele>1</ele>
        <time>2020-06-04T18:27:15Z</time>
      </trkpt>
      <trkpt lat="51.229833752145" lon="4.450834078441">
        <ele>0</ele>
        <time>2020-06-04T18:27:33Z</time>
      </trkpt>
      <trkpt lat="51.229761500167" lon="4.45159859154">
        <ele>0</ele>
        <time>2020-06-04T18:27:50Z</time>
      </trkpt>
      <trkpt lat="51.229928719072" lon="4.452442816508">
        <ele>0</ele>
        <time>2020-06-04T18:28:09Z</time>
      </trkpt>
      <trkpt lat="51.230084538593" lon="4.453264661803">
        <ele>0.8</ele>
        <time>2020-06-04T18:28:28Z</time>
      </trkpt>
      <trkpt lat="51.230130806681" lon="4.453451578173">
        <ele>2.4</ele>
        <time>2020-06-04T18:28:34Z</time>
      </trkpt>
      <trkpt lat="51.230158886046" lon="4.453620473458">
        <ele>3.2</ele>
        <time>2020-06-04T18:29:12Z</time>
      </trkpt>
      <trkpt lat="51.230282351433" lon="4.454453718137">
        <ele>2.6</ele>
        <time>2020-06-04T18:29:29Z</time>
      </trkpt>
      <trkpt lat="51.230064841128" lon="4.455097028962">
        <ele>1.8</ele>
        <time>2020-06-04T18:29:43Z</time>
      </trkpt>
      <trkpt lat="51.229994181711" lon="4.455069284873">
        <ele>1</ele>
        <time>2020-06-04T18:29:45Z</time>
      </trkpt>
      <trkpt lat="51.229467966029" lon="4.454805087385">
        <ele>0.4</ele>
        <time>2020-06-04T18:30:00Z</time>
      </trkpt>
      <trkpt lat="51.228922304339" lon="4.454627223467">
        <ele>1.6</ele>
        <time>2020-06-04T18:30:15Z</time>
      </trkpt>
      <trkpt lat="51.228351748406" lon="4.45450711084">
        <ele>2.4</ele>
        <time>2020-06-04T18:30:30Z</time>
      </trkpt>
      <trkpt lat="51.227794938789" lon="4.454438798355">
        <ele>0</ele>
        <time>2020-06-04T18:30:46Z</time>
      </trkpt>
      <trkpt lat="51.22673538281" lon="4.454315752063">
        <ele>1.6</ele>
        <time>2020-06-04T18:31:21Z</time>
      </trkpt>
      <trkpt lat="51.226805287856" lon="4.453432215984">
        <ele>4.2</ele>
        <time>2020-06-04T18:31:42Z</time>
      </trkpt>
      <trkpt lat="51.226852477953" lon="4.452544656593">
        <ele>5.6</ele>
        <time>2020-06-04T18:32:02Z</time>
      </trkpt>
      <trkpt lat="51.22688625701" lon="4.451664221817">
        <ele>4.2</ele>
        <time>2020-06-04T18:32:19Z</time>
      </trkpt>
      <trkpt lat="51.226883826259" lon="4.451100874318">
        <ele>5.8</ele>
        <time>2020-06-04T18:32:31Z</time>
      </trkpt>
      <trkpt lat="51.226970327467" lon="4.450226893605">
        <ele>7.4</ele>
        <time>2020-06-04T18:32:48Z</time>
      </trkpt>
      <trkpt lat="51.226908133769" lon="4.44937738804">
        <ele>5.6</ele>
        <time>2020-06-04T18:33:07Z</time>
      </trkpt>
      <trkpt lat="51.226897069661" lon="4.449308740279">
        <ele>4.8</ele>
        <time>2020-06-04T18:33:09Z</time>
      </trkpt>
      <trkpt lat="51.227136121449" lon="4.448561158618">
        <ele>0</ele>
        <time>2020-06-04T18:33:29Z</time>
      </trkpt>
      <trkpt lat="51.22752831055" lon="4.447956153076">
        <ele>0</ele>
        <time>2020-06-04T18:33:44Z</time>
      </trkpt>
      <trkpt lat="51.22792309804" lon="4.447376041777">
        <ele>0</ele>
        <time>2020-06-04T18:34:00Z</time>
      </trkpt>
      <trkpt lat="51.228316795883" lon="4.446922078073">
        <ele>0</ele>
        <time>2020-06-04T18:34:28Z</time>
      </trkpt>
      <trkpt lat="51.228331045113" lon="4.446961473003">
        <ele>0</ele>
        <time>2020-06-04T18:34:30Z</time>
      </trkpt>
      <trkpt lat="51.228671517891" lon="4.447631773546">
        <ele>0</ele>
        <time>2020-06-04T18:34:49Z</time>
      </trkpt>
      <trkpt lat="51.229056917653" lon="4.448262176245">
        <ele>0</ele>
        <time>2020-06-04T18:35:06Z</time>
      </trkpt>
      <trkpt lat="51.229357576406" lon="4.448842036087">
        <ele>0</ele>
        <time>2020-06-04T18:35:24Z</time>
      </trkpt>
      <trkpt lat="51.228991371195" lon="4.449336987282">
        <ele>0</ele>
        <time>2020-06-04T18:35:51Z</time>
      </trkpt>
      <trkpt lat="51.228543693916" lon="4.449875189081">
        <ele>3</ele>
        <time>2020-06-04T18:36:14Z</time>
      </trkpt>
      <trkpt lat="51.228506562099" lon="4.450576670292">
        <ele>0</ele>
        <time>2020-06-04T18:36:35Z</time>
      </trkpt>
      <trkpt lat="51.228899254114" lon="4.45118955482">
        <ele>0</ele>
        <time>2020-06-04T18:36:55Z</time>
      </trkpt>
      <trkpt lat="51.229448436202" lon="4.451025521037">
        <ele>0.2</ele>
        <time>2020-06-04T18:37:14Z</time>
      </trkpt>
      <trkpt lat="51.229518927981" lon="4.450302917438">
        <ele>7.2</ele>
        <time>2020-06-04T18:37:34Z</time>
      </trkpt>
      <trkpt lat="51.229395965508" lon="4.449445113792">
        <ele>8.6</ele>
        <time>2020-06-04T18:37:51Z</time>
      </trkpt>
      <trkpt lat="51.229184406352" lon="4.448636511899">
        <ele>6.2</ele>
        <time>2020-06-04T18:38:06Z</time>
      </trkpt>
      <trkpt lat="51.228805293015" lon="4.448015077833">
        <ele>2</ele>
        <time>2020-06-04T18:38:21Z</time>
      </trkpt>
      <trkpt lat="51.228745949163" lon="4.447907454237">
        <ele>1.8</ele>
        <time>2020-06-04T18:38:25Z</time>
      </trkpt>
      <trkpt lat="51.229164038335" lon="4.447333629363">
        <ele>0</ele>
        <time>2020-06-04T18:38:44Z</time>
      </trkpt>
      <trkpt lat="51.229529405356" lon="4.446839013444">
        <ele>0.2</ele>
        <time>2020-06-04T18:38:59Z</time>
      </trkpt>
      <trkpt lat="51.229738449942" lon="4.447646777147">
        <ele>0.4</ele>
        <time>2020-06-04T18:39:15Z</time>
      </trkpt>
      <trkpt lat="51.229903405734" lon="4.44848052474">
        <ele>0</ele>
        <time>2020-06-04T18:39:32Z</time>
      </trkpt>
      <trkpt lat="51.230093674864" lon="4.449297173257">
        <ele>0</ele>
        <time>2020-06-04T18:39:55Z</time>
      </trkpt>
      <trkpt lat="51.230288805496" lon="4.450136369085">
        <ele>0</ele>
        <time>2020-06-04T18:40:16Z</time>
      </trkpt>
      <trkpt lat="51.230358207628" lon="4.450747577233">
        <ele>2.2</ele>
        <time>2020-06-04T18:40:30Z</time>
      </trkpt>
      <trkpt lat="51.229811959205" lon="4.450839861952">
        <ele>0</ele>
        <time>2020-06-04T18:40:49Z</time>
      </trkpt>
      <trkpt lat="51.229290772663" lon="4.451051672565">
        <ele>0</ele>
        <time>2020-06-04T18:41:08Z</time>
      </trkpt>
      <trkpt lat="51.228748044638" lon="4.451087882373">
        <ele>4.8</ele>
        <time>2020-06-04T18:41:23Z</time>
      </trkpt>
      <trkpt lat="51.228407320403" lon="4.450409786663">
        <ele>0</ele>
        <time>2020-06-04T18:41:49Z</time>
      </trkpt>
      <trkpt lat="51.22834219304" lon="4.450172327436">
        <ele>1.6</ele>
        <time>2020-06-04T18:41:55Z</time>
      </trkpt>
      <trkpt lat="51.228476973992" lon="4.450013993345">
        <ele>2.4</ele>
        <time>2020-06-04T18:42:04Z</time>
      </trkpt>
      <trkpt lat="51.228875700975" lon="4.449401611731">
        <ele>5.8</ele>
        <time>2020-06-04T18:42:26Z</time>
      </trkpt>
      <trkpt lat="51.229236625589" lon="4.448806413012">
        <ele>3</ele>
        <time>2020-06-04T18:42:51Z</time>
      </trkpt>
      <trkpt lat="51.228949294057" lon="4.448420929431">
        <ele>0</ele>
        <time>2020-06-04T18:43:04Z</time>
      </trkpt>
      <trkpt lat="51.228865726514" lon="4.448594770037">
        <ele>0</ele>
        <time>2020-06-04T18:43:09Z</time>
      </trkpt>
      <trkpt lat="51.228845442316" lon="4.448645815808">
        <ele>0.6</ele>
        <time>2020-06-04T18:43:46Z</time>
      </trkpt>
      <trkpt lat="51.228808059042" lon="4.448734915405">
        <ele>0.6</ele>
        <time>2020-06-04T18:43:52Z</time>
      </trkpt>
      <trkpt lat="51.228650227865" lon="4.449035238882">
        <ele>0</ele>
        <time>2020-06-04T18:43:58Z</time>
      </trkpt>
      <trkpt lat="51.228577892068" lon="4.4490119372">
        <ele>0</ele>
        <time>2020-06-04T18:44:02Z</time>
      </trkpt>
      <trkpt lat="51.228809232508" lon="4.448808340849">
        <ele>0</ele>
        <time>2020-06-04T18:44:11Z</time>
      </trkpt>
      <trkpt lat="51.228797497848" lon="4.448884197044">
        <ele>0</ele>
        <time>2020-06-04T18:44:13Z</time>
      </trkpt>
      <trkpt lat="51.228562385553" lon="4.44912593104">
        <ele>0</ele>
        <time>2020-06-04T18:44:21Z</time>
      </trkpt>
      <trkpt lat="51.228580825733" lon="4.449059797849">
        <ele>0</ele>
        <time>2020-06-04T18:44:23Z</time>
      </trkpt>
      <trkpt lat="51.228792133432" lon="4.448846981408">
        <ele>0</ele>
        <time>2020-06-04T18:44:30Z</time>
      </trkpt>
      <trkpt lat="51.228794228907" lon="4.448953599176">
        <ele>0</ele>
        <time>2020-06-04T18:44:33Z</time>
      </trkpt>
      <trkpt lat="51.228584513769" lon="4.449123165013">
        <ele>0</ele>
        <time>2020-06-04T18:44:40Z</time>
      </trkpt>
      <trkpt lat="51.228747290267" lon="4.448905403251">
        <ele>0</ele>
        <time>2020-06-04T18:44:47Z</time>
      </trkpt>
      <trkpt lat="51.228750726846" lon="4.448983103464">
        <ele>0</ele>
        <time>2020-06-04T18:44:49Z</time>
      </trkpt>
      <trkpt lat="51.228479488562" lon="4.449290970651">
        <ele>0</ele>
        <time>2020-06-04T18:44:59Z</time>
      </trkpt>
    </trkseg>
  </trk>
</gpx>